sensor_id;sensor_type;location;lat;lon;timestamp;P1;P2;P0
12542;PMS3003;6337;49.556;25.594;2023-08-20T00:02:12;14.40;10.00;
12542;PMS3003;6337;49.556;25.594;2023-08-20T00:04:40;17.80;10.27;
12542;PMS3003;6337;49.556;25.594;2023-08-20T00:07:09;15.53;8.63;
12542;PMS3003;6337;49.556;25.594;2023-08-20T00:09:38;12.73;8.10;
12542;PMS3003;6337;49.556;25.594;2023-08-20T00:12:07;10.70;8.53;
12542;PMS3003;6337;49.556;25.594;2023-08-20T00:14:53;24.50;9.00;
12542;PMS3003;6337;49.556;25.594;2023-08-20T00:17:24;14.67;9.03;
12542;PMS3003;6337;49.556;25.594;2023-08-20T00:19:53;11.50;8.60;
12542;PMS3003;6337;49.556;25.594;2023-08-20T00:22:22;12.00;9.83;
12542;PMS3003;6337;49.556;25.594;2023-08-20T00:24:51;13.47;8.63;
12542;PMS3003;6337;49.556;25.594;2023-08-20T00:27:21;20.63;8.73;
12542;PMS3003;6337;49.556;25.594;2023-08-20T00:29:48;14.53;9.20;
12542;PMS3003;6337;49.556;25.594;2023-08-20T00:32:16;12.10;8.80;
12542;PMS3003;6337;49.556;25.594;2023-08-20T00:34:43;11.60;9.53;
12542;PMS3003;6337;49.556;25.594;2023-08-20T00:37:11;14.57;10.53;
12542;PMS3003;6337;49.556;25.594;2023-08-20T00:39:38;14.37;8.90;
12542;PMS3003;6337;49.556;25.594;2023-08-20T00:42:06;12.57;8.83;
12542;PMS3003;6337;49.556;25.594;2023-08-20T00:44:35;11.60;10.10;
12542;PMS3003;6337;49.556;25.594;2023-08-20T00:47:02;14.70;8.50;
12542;PMS3003;6337;49.556;25.594;2023-08-20T00:49:32;11.93;8.67;
12542;PMS3003;6337;49.556;25.594;2023-08-20T00:51:59;24.57;9.47;
12542;PMS3003;6337;49.556;25.594;2023-08-20T00:54:28;12.00;9.03;
12542;PMS3003;6337;49.556;25.594;2023-08-20T00:56:55;12.03;9.97;
12542;PMS3003;6337;49.556;25.594;2023-08-20T00:59:23;14.67;9.40;
12542;PMS3003;6337;49.556;25.594;2023-08-20T01:01:53;17.27;8.43;
12542;PMS3003;6337;49.556;25.594;2023-08-20T01:04:20;13.60;9.00;
12542;PMS3003;6337;49.556;25.594;2023-08-20T01:06:51;13.43;9.77;
12542;PMS3003;6337;49.556;25.594;2023-08-20T01:09:23;10.43;8.73;
12542;PMS3003;6337;49.556;25.594;2023-08-20T01:11:59;22.43;9.53;
12542;PMS3003;6337;49.556;25.594;2023-08-20T01:14:27;89.73;62.27;
12542;PMS3003;6337;49.556;25.594;2023-08-20T01:16:56;160.47;105.50;
12542;PMS3003;6337;49.556;25.594;2023-08-20T01:19:23;242.67;144.10;
12542;PMS3003;6337;49.556;25.594;2023-08-20T01:21:56;168.10;106.17;
12542;PMS3003;6337;49.556;25.594;2023-08-20T01:24:38;90.97;55.97;
12542;PMS3003;6337;49.556;25.594;2023-08-20T01:27:19;122.53;74.10;
12542;PMS3003;6337;49.556;25.594;2023-08-20T01:29:55;92.67;60.73;
12542;PMS3003;6337;49.556;25.594;2023-08-20T01:32:23;66.97;49.40;
12542;PMS3003;6337;49.556;25.594;2023-08-20T01:34:52;58.67;40.77;
12542;PMS3003;6337;49.556;25.594;2023-08-20T01:37:19;46.33;28.63;
12542;PMS3003;6337;49.556;25.594;2023-08-20T01:39:47;31.17;22.80;
12542;PMS3003;6337;49.556;25.594;2023-08-20T01:42:14;30.60;21.50;
12542;PMS3003;6337;49.556;25.594;2023-08-20T01:44:42;24.97;17.50;
12542;PMS3003;6337;49.556;25.594;2023-08-20T01:47:11;35.70;20.80;
12542;PMS3003;6337;49.556;25.594;2023-08-20T01:49:38;64.17;42.20;
12542;PMS3003;6337;49.556;25.594;2023-08-20T01:52:10;68.87;41.20;
12542;PMS3003;6337;49.556;25.594;2023-08-20T01:54:38;48.57;35.40;
12542;PMS3003;6337;49.556;25.594;2023-08-20T01:57:06;59.70;37.00;
12542;PMS3003;6337;49.556;25.594;2023-08-20T01:59:34;46.23;30.10;
12542;PMS3003;6337;49.556;25.594;2023-08-20T02:02:03;49.57;31.50;
12542;PMS3003;6337;49.556;25.594;2023-08-20T02:04:33;49.70;29.80;
12542;PMS3003;6337;49.556;25.594;2023-08-20T02:07:00;38.60;26.53;
12542;PMS3003;6337;49.556;25.594;2023-08-20T02:09:28;48.53;29.60;
12542;PMS3003;6337;49.556;25.594;2023-08-20T02:11:55;35.30;24.93;
12542;PMS3003;6337;49.556;25.594;2023-08-20T02:14:22;39.50;27.13;
12542;PMS3003;6337;49.556;25.594;2023-08-20T02:16:52;40.23;23.33;
12542;PMS3003;6337;49.556;25.594;2023-08-20T02:19:19;55.07;26.47;
12542;PMS3003;6337;49.556;25.594;2023-08-20T02:21:48;42.57;24.37;
12542;PMS3003;6337;49.556;25.594;2023-08-20T02:24:15;35.90;25.20;
12542;PMS3003;6337;49.556;25.594;2023-08-20T02:26:43;38.13;21.50;
12542;PMS3003;6337;49.556;25.594;2023-08-20T02:29:10;32.30;19.57;
12542;PMS3003;6337;49.556;25.594;2023-08-20T02:31:38;27.10;17.00;
12542;PMS3003;6337;49.556;25.594;2023-08-20T02:34:04;28.63;17.90;
12542;PMS3003;6337;49.556;25.594;2023-08-20T02:36:33;20.30;14.83;
12542;PMS3003;6337;49.556;25.594;2023-08-20T02:39:03;34.73;16.37;
12542;PMS3003;6337;49.556;25.594;2023-08-20T02:41:33;21.80;15.60;
12542;PMS3003;6337;49.556;25.594;2023-08-20T02:44:01;26.10;16.50;
12542;PMS3003;6337;49.556;25.594;2023-08-20T02:46:28;30.47;16.57;
12542;PMS3003;6337;49.556;25.594;2023-08-20T02:48:56;20.60;14.47;
12542;PMS3003;6337;49.556;25.594;2023-08-20T02:51:23;25.63;15.23;
12542;PMS3003;6337;49.556;25.594;2023-08-20T02:53:51;31.43;15.70;
12542;PMS3003;6337;49.556;25.594;2023-08-20T02:56:20;29.93;16.10;
12542;PMS3003;6337;49.556;25.594;2023-08-20T02:58:49;21.53;12.63;
12542;PMS3003;6337;49.556;25.594;2023-08-20T03:01:24;28.77;16.00;
12542;PMS3003;6337;49.556;25.594;2023-08-20T03:03:53;39.77;14.73;
12542;PMS3003;6337;49.556;25.594;2023-08-20T03:06:21;21.67;14.00;
12542;PMS3003;6337;49.556;25.594;2023-08-20T03:08:48;22.00;13.30;
12542;PMS3003;6337;49.556;25.594;2023-08-20T03:11:16;21.13;14.13;
12542;PMS3003;6337;49.556;25.594;2023-08-20T03:13:45;15.83;12.07;
12542;PMS3003;6337;49.556;25.594;2023-08-20T03:16:12;20.17;14.53;
12542;PMS3003;6337;49.556;25.594;2023-08-20T03:18:39;25.07;14.60;
12542;PMS3003;6337;49.556;25.594;2023-08-20T03:21:08;20.73;14.57;
12542;PMS3003;6337;49.556;25.594;2023-08-20T03:23:35;21.80;12.70;
12542;PMS3003;6337;49.556;25.594;2023-08-20T03:26:03;16.07;12.87;
12542;PMS3003;6337;49.556;25.594;2023-08-20T03:28:32;18.73;12.97;
12542;PMS3003;6337;49.556;25.594;2023-08-20T03:31:02;25.27;13.10;
12542;PMS3003;6337;49.556;25.594;2023-08-20T03:33:30;28.40;14.00;
12542;PMS3003;6337;49.556;25.594;2023-08-20T03:35:58;31.43;14.40;
12542;PMS3003;6337;49.556;25.594;2023-08-20T03:38:26;23.50;14.13;
12542;PMS3003;6337;49.556;25.594;2023-08-20T03:40:59;23.27;14.67;
12542;PMS3003;6337;49.556;25.594;2023-08-20T03:43:29;19.77;13.70;
12542;PMS3003;6337;49.556;25.594;2023-08-20T03:45:58;22.20;16.50;
12542;PMS3003;6337;49.556;25.594;2023-08-20T03:48:31;19.70;13.30;
12542;PMS3003;6337;49.556;25.594;2023-08-20T03:50:58;18.90;13.57;
12542;PMS3003;6337;49.556;25.594;2023-08-20T03:53:28;21.97;12.50;
12542;PMS3003;6337;49.556;25.594;2023-08-20T03:55:56;17.30;14.27;
12542;PMS3003;6337;49.556;25.594;2023-08-20T03:58:25;25.60;13.57;
12542;PMS3003;6337;49.556;25.594;2023-08-20T04:00:52;19.00;13.10;
12542;PMS3003;6337;49.556;25.594;2023-08-20T04:03:25;20.83;14.77;
12542;PMS3003;6337;49.556;25.594;2023-08-20T04:05:55;17.10;14.27;
12542;PMS3003;6337;49.556;25.594;2023-08-20T04:08:22;27.03;14.37;
12542;PMS3003;6337;49.556;25.594;2023-08-20T04:10:50;30.67;13.70;
12542;PMS3003;6337;49.556;25.594;2023-08-20T04:13:21;16.30;11.53;
12542;PMS3003;6337;49.556;25.594;2023-08-20T04:15:53;18.37;12.03;
12542;PMS3003;6337;49.556;25.594;2023-08-20T04:18:23;24.47;13.63;
12542;PMS3003;6337;49.556;25.594;2023-08-20T04:20:50;21.23;12.10;
12542;PMS3003;6337;49.556;25.594;2023-08-20T04:23:20;28.87;13.13;
12542;PMS3003;6337;49.556;25.594;2023-08-20T04:25:46;22.63;13.77;
12542;PMS3003;6337;49.556;25.594;2023-08-20T04:28:14;21.57;14.50;
12542;PMS3003;6337;49.556;25.594;2023-08-20T04:30:41;27.10;17.63;
12542;PMS3003;6337;49.556;25.594;2023-08-20T04:33:08;35.50;17.27;
12542;PMS3003;6337;49.556;25.594;2023-08-20T04:35:36;19.50;16.63;
12542;PMS3003;6337;49.556;25.594;2023-08-20T04:38:06;19.83;14.93;
12542;PMS3003;6337;49.556;25.594;2023-08-20T04:40:36;25.70;15.57;
12542;PMS3003;6337;49.556;25.594;2023-08-20T04:43:04;29.47;14.80;
12542;PMS3003;6337;49.556;25.594;2023-08-20T04:45:32;28.63;14.70;
12542;PMS3003;6337;49.556;25.594;2023-08-20T04:48:01;25.97;15.00;
12542;PMS3003;6337;49.556;25.594;2023-08-20T04:50:28;20.30;13.47;
12542;PMS3003;6337;49.556;25.594;2023-08-20T04:52:55;21.67;14.13;
12542;PMS3003;6337;49.556;25.594;2023-08-20T04:55:25;27.87;13.50;
12542;PMS3003;6337;49.556;25.594;2023-08-20T04:57:55;22.50;12.17;
12542;PMS3003;6337;49.556;25.594;2023-08-20T05:00:22;23.17;12.90;
12542;PMS3003;6337;49.556;25.594;2023-08-20T05:02:50;17.20;10.93;
12542;PMS3003;6337;49.556;25.594;2023-08-20T05:05:17;21.80;12.30;
12542;PMS3003;6337;49.556;25.594;2023-08-20T05:07:45;15.57;12.23;
12542;PMS3003;6337;49.556;25.594;2023-08-20T05:10:12;21.60;11.17;
12542;PMS3003;6337;49.556;25.594;2023-08-20T05:12:44;25.50;12.10;
12542;PMS3003;6337;49.556;25.594;2023-08-20T05:15:13;20.37;12.27;
12542;PMS3003;6337;49.556;25.594;2023-08-20T05:17:41;19.13;12.33;
12542;PMS3003;6337;49.556;25.594;2023-08-20T05:20:09;21.87;12.10;
12542;PMS3003;6337;49.556;25.594;2023-08-20T05:22:40;16.23;11.00;
12542;PMS3003;6337;49.556;25.594;2023-08-20T05:25:08;27.70;13.03;
12542;PMS3003;6337;49.556;25.594;2023-08-20T05:27:36;28.73;12.20;
12542;PMS3003;6337;49.556;25.594;2023-08-20T05:30:04;25.50;12.00;
12542;PMS3003;6337;49.556;25.594;2023-08-20T05:32:36;22.17;11.93;
12542;PMS3003;6337;49.556;25.594;2023-08-20T05:35:10;23.50;12.40;
12542;PMS3003;6337;49.556;25.594;2023-08-20T05:37:37;19.77;10.10;
12542;PMS3003;6337;49.556;25.594;2023-08-20T05:40:06;21.00;11.70;
12542;PMS3003;6337;49.556;25.594;2023-08-20T05:42:36;16.60;10.20;
12542;PMS3003;6337;49.556;25.594;2023-08-20T05:45:04;17.73;10.97;
12542;PMS3003;6337;49.556;25.594;2023-08-20T05:47:33;20.20;9.43;
12542;PMS3003;6337;49.556;25.594;2023-08-20T05:50:04;18.97;9.17;
12542;PMS3003;6337;49.556;25.594;2023-08-20T05:52:32;14.67;9.57;
12542;PMS3003;6337;49.556;25.594;2023-08-20T05:55:00;17.33;10.37;
12542;PMS3003;6337;49.556;25.594;2023-08-20T05:57:29;17.23;10.43;
12542;PMS3003;6337;49.556;25.594;2023-08-20T05:59:59;10.63;9.00;
12542;PMS3003;6337;49.556;25.594;2023-08-20T06:02:26;15.77;9.17;
12542;PMS3003;6337;49.556;25.594;2023-08-20T06:04:58;13.87;9.60;
12542;PMS3003;6337;49.556;25.594;2023-08-20T06:07:28;13.67;9.00;
12542;PMS3003;6337;49.556;25.594;2023-08-20T06:09:55;10.53;9.43;
12542;PMS3003;6337;49.556;25.594;2023-08-20T06:12:23;9.37;8.37;
12542;PMS3003;6337;49.556;25.594;2023-08-20T06:14:50;14.70;9.53;
12542;PMS3003;6337;49.556;25.594;2023-08-20T06:17:18;10.27;8.23;
12542;PMS3003;6337;49.556;25.594;2023-08-20T06:19:45;11.23;9.20;
12542;PMS3003;6337;49.556;25.594;2023-08-20T06:22:13;7.57;6.97;
12542;PMS3003;6337;49.556;25.594;2023-08-20T06:24:42;13.90;8.87;
12542;PMS3003;6337;49.556;25.594;2023-08-20T06:27:10;11.20;10.10;
12542;PMS3003;6337;49.556;25.594;2023-08-20T06:29:37;24.10;11.40;
12542;PMS3003;6337;49.556;25.594;2023-08-20T06:32:05;13.83;12.17;
12542;PMS3003;6337;49.556;25.594;2023-08-20T06:34:34;12.63;9.87;
12542;PMS3003;6337;49.556;25.594;2023-08-20T06:37:01;11.40;9.60;
12542;PMS3003;6337;49.556;25.594;2023-08-20T06:39:30;8.70;7.73;
12542;PMS3003;6337;49.556;25.594;2023-08-20T06:41:59;11.73;8.77;
12542;PMS3003;6337;49.556;25.594;2023-08-20T06:44:27;14.43;9.20;
12542;PMS3003;6337;49.556;25.594;2023-08-20T06:46:54;14.90;8.90;
12542;PMS3003;6337;49.556;25.594;2023-08-20T06:49:22;14.93;9.33;
12542;PMS3003;6337;49.556;25.594;2023-08-20T06:51:49;10.37;8.03;
12542;PMS3003;6337;49.556;25.594;2023-08-20T06:54:17;9.90;7.40;
12542;PMS3003;6337;49.556;25.594;2023-08-20T06:56:47;9.57;8.47;
12542;PMS3003;6337;49.556;25.594;2023-08-20T06:59:18;10.97;8.10;
12542;PMS3003;6337;49.556;25.594;2023-08-20T07:01:47;13.83;8.47;
12542;PMS3003;6337;49.556;25.594;2023-08-20T07:04:14;11.60;9.20;
12542;PMS3003;6337;49.556;25.594;2023-08-20T07:06:41;9.23;8.33;
12542;PMS3003;6337;49.556;25.594;2023-08-20T07:09:09;13.60;9.97;
12542;PMS3003;6337;49.556;25.594;2023-08-20T07:11:37;10.50;8.30;
12542;PMS3003;6337;49.556;25.594;2023-08-20T07:14:05;8.90;8.07;
12542;PMS3003;6337;49.556;25.594;2023-08-20T07:16:35;12.50;7.50;
12542;PMS3003;6337;49.556;25.594;2023-08-20T07:19:05;16.50;9.57;
12542;PMS3003;6337;49.556;25.594;2023-08-20T07:21:33;9.80;7.63;
12542;PMS3003;6337;49.556;25.594;2023-08-20T07:24:00;15.10;7.47;
12542;PMS3003;6337;49.556;25.594;2023-08-20T07:26:28;11.07;8.73;
12542;PMS3003;6337;49.556;25.594;2023-08-20T07:28:56;12.07;8.23;
12542;PMS3003;6337;49.556;25.594;2023-08-20T07:31:24;9.90;8.20;
12542;PMS3003;6337;49.556;25.594;2023-08-20T07:33:54;13.20;7.10;
12542;PMS3003;6337;49.556;25.594;2023-08-20T07:36:25;19.53;8.37;
12542;PMS3003;6337;49.556;25.594;2023-08-20T07:38:53;10.20;7.07;
12542;PMS3003;6337;49.556;25.594;2023-08-20T07:41:21;18.57;7.40;
12542;PMS3003;6337;49.556;25.594;2023-08-20T07:43:48;15.30;7.17;
12542;PMS3003;6337;49.556;25.594;2023-08-20T07:46:16;11.60;7.03;
12542;PMS3003;6337;49.556;25.594;2023-08-20T07:48:43;18.03;7.30;
12542;PMS3003;6337;49.556;25.594;2023-08-20T07:51:13;8.70;6.57;
12542;PMS3003;6337;49.556;25.594;2023-08-20T07:53:40;14.90;7.23;
12542;PMS3003;6337;49.556;25.594;2023-08-20T07:56:08;11.83;7.87;
12542;PMS3003;6337;49.556;25.594;2023-08-20T07:58:37;6.60;5.67;
12542;PMS3003;6337;49.556;25.594;2023-08-20T08:01:04;9.90;6.30;
12542;PMS3003;6337;49.556;25.594;2023-08-20T08:03:34;17.73;6.80;
12542;PMS3003;6337;49.556;25.594;2023-08-20T08:06:01;10.97;7.47;
12542;PMS3003;6337;49.556;25.594;2023-08-20T08:08:32;10.00;8.23;
12542;PMS3003;6337;49.556;25.594;2023-08-20T08:10:59;8.20;6.93;
12542;PMS3003;6337;49.556;25.594;2023-08-20T08:13:26;8.43;6.60;
12542;PMS3003;6337;49.556;25.594;2023-08-20T08:15:54;16.17;7.07;
12542;PMS3003;6337;49.556;25.594;2023-08-20T08:18:22;6.73;6.13;
12542;PMS3003;6337;49.556;25.594;2023-08-20T08:20:50;5.83;5.33;
12542;PMS3003;6337;49.556;25.594;2023-08-20T08:23:21;10.53;7.47;
12542;PMS3003;6337;49.556;25.594;2023-08-20T08:25:50;13.70;7.10;
12542;PMS3003;6337;49.556;25.594;2023-08-20T08:28:17;11.63;8.03;
12542;PMS3003;6337;49.556;25.594;2023-08-20T08:30:45;10.60;6.33;
12542;PMS3003;6337;49.556;25.594;2023-08-20T08:33:12;10.40;7.37;
12542;PMS3003;6337;49.556;25.594;2023-08-20T08:35:39;6.43;5.70;
12542;PMS3003;6337;49.556;25.594;2023-08-20T08:38:07;7.17;6.50;
12542;PMS3003;6337;49.556;25.594;2023-08-20T08:40:34;11.30;6.17;
12542;PMS3003;6337;49.556;25.594;2023-08-20T08:43:03;17.13;6.13;
12542;PMS3003;6337;49.556;25.594;2023-08-20T08:45:32;7.27;6.70;
12542;PMS3003;6337;49.556;25.594;2023-08-20T08:47:59;9.20;5.00;
12542;PMS3003;6337;49.556;25.594;2023-08-20T08:50:29;10.10;5.17;
12542;PMS3003;6337;49.556;25.594;2023-08-20T08:52:57;6.37;5.20;
12542;PMS3003;6337;49.556;25.594;2023-08-20T08:55:25;10.90;6.30;
12542;PMS3003;6337;49.556;25.594;2023-08-20T08:57:52;8.27;5.20;
12542;PMS3003;6337;49.556;25.594;2023-08-20T09:00:22;8.20;5.00;
12542;PMS3003;6337;49.556;25.594;2023-08-20T09:02:49;13.70;5.93;
12542;PMS3003;6337;49.556;25.594;2023-08-20T09:05:18;10.03;5.60;
12542;PMS3003;6337;49.556;25.594;2023-08-20T09:07:46;6.77;5.07;
12542;PMS3003;6337;49.556;25.594;2023-08-20T09:10:16;5.80;4.87;
12542;PMS3003;6337;49.556;25.594;2023-08-20T09:12:43;7.43;4.53;
12542;PMS3003;6337;49.556;25.594;2023-08-20T09:15:11;6.30;4.40;
12542;PMS3003;6337;49.556;25.594;2023-08-20T09:17:44;13.43;5.03;
12542;PMS3003;6337;49.556;25.594;2023-08-20T09:20:11;9.70;4.93;
12542;PMS3003;6337;49.556;25.594;2023-08-20T09:22:39;6.90;5.73;
12542;PMS3003;6337;49.556;25.594;2023-08-20T09:25:15;5.13;4.73;
12542;PMS3003;6337;49.556;25.594;2023-08-20T09:27:43;10.27;4.70;
12542;PMS3003;6337;49.556;25.594;2023-08-20T09:30:11;6.97;5.10;
12542;PMS3003;6337;49.556;25.594;2023-08-20T09:32:50;6.10;4.70;
12542;PMS3003;6337;49.556;25.594;2023-08-20T09:35:32;6.10;5.13;
12542;PMS3003;6337;49.556;25.594;2023-08-20T09:38:02;5.53;5.03;
12542;PMS3003;6337;49.556;25.594;2023-08-20T09:40:34;9.57;4.50;
12542;PMS3003;6337;49.556;25.594;2023-08-20T09:43:02;5.40;4.90;
12542;PMS3003;6337;49.556;25.594;2023-08-20T09:45:33;8.60;5.53;
12542;PMS3003;6337;49.556;25.594;2023-08-20T09:48:03;5.53;4.73;
12542;PMS3003;6337;49.556;25.594;2023-08-20T09:50:32;5.27;4.90;
12542;PMS3003;6337;49.556;25.594;2023-08-20T09:53:07;7.33;4.70;
12542;PMS3003;6337;49.556;25.594;2023-08-20T09:55:41;5.20;4.60;
12542;PMS3003;6337;49.556;25.594;2023-08-20T09:58:10;12.93;4.50;
12542;PMS3003;6337;49.556;25.594;2023-08-20T10:00:38;4.60;4.20;
12542;PMS3003;6337;49.556;25.594;2023-08-20T10:03:15;4.57;4.27;
12542;PMS3003;6337;49.556;25.594;2023-08-20T10:05:44;9.67;4.47;
12542;PMS3003;6337;49.556;25.594;2023-08-20T10:08:12;8.00;5.17;
12542;PMS3003;6337;49.556;25.594;2023-08-20T10:10:40;8.50;6.03;
12542;PMS3003;6337;49.556;25.594;2023-08-20T10:13:12;9.10;3.90;
12542;PMS3003;6337;49.556;25.594;2023-08-20T10:15:46;4.70;3.77;
12542;PMS3003;6337;49.556;25.594;2023-08-20T10:18:24;6.50;4.43;
12542;PMS3003;6337;49.556;25.594;2023-08-20T10:20:53;6.50;4.00;
12542;PMS3003;6337;49.556;25.594;2023-08-20T10:23:24;6.80;4.87;
12542;PMS3003;6337;49.556;25.594;2023-08-20T10:25:52;8.50;4.60;
12542;PMS3003;6337;49.556;25.594;2023-08-20T10:28:22;7.90;5.80;
12542;PMS3003;6337;49.556;25.594;2023-08-20T10:31:03;9.97;5.20;
12542;PMS3003;6337;49.556;25.594;2023-08-20T10:33:37;5.50;4.10;
12542;PMS3003;6337;49.556;25.594;2023-08-20T10:36:08;6.90;4.13;
12542;PMS3003;6337;49.556;25.594;2023-08-20T10:38:44;7.30;4.80;
12542;PMS3003;6337;49.556;25.594;2023-08-20T10:41:12;8.47;4.37;
12542;PMS3003;6337;49.556;25.594;2023-08-20T10:43:45;7.33;5.00;
12542;PMS3003;6337;49.556;25.594;2023-08-20T10:46:15;4.47;4.17;
12542;PMS3003;6337;49.556;25.594;2023-08-20T10:48:49;3.90;3.60;
12542;PMS3003;6337;49.556;25.594;2023-08-20T10:51:18;4.73;4.33;
12542;PMS3003;6337;49.556;25.594;2023-08-20T10:54:02;7.73;4.33;
12542;PMS3003;6337;49.556;25.594;2023-08-20T10:56:40;10.00;4.03;
12542;PMS3003;6337;49.556;25.594;2023-08-20T10:59:09;4.77;4.27;
12542;PMS3003;6337;49.556;25.594;2023-08-20T11:01:49;5.20;4.47;
12542;PMS3003;6337;49.556;25.594;2023-08-20T11:04:21;6.93;4.63;
12542;PMS3003;6337;49.556;25.594;2023-08-20T11:06:53;6.13;3.83;
12542;PMS3003;6337;49.556;25.594;2023-08-20T11:09:23;8.60;4.23;
12542;PMS3003;6337;49.556;25.594;2023-08-20T11:11:51;16.80;4.40;
12542;PMS3003;6337;49.556;25.594;2023-08-20T11:14:21;7.57;4.20;
12542;PMS3003;6337;49.556;25.594;2023-08-20T11:16:51;6.73;3.80;
12542;PMS3003;6337;49.556;25.594;2023-08-20T11:19:21;4.40;4.00;
12542;PMS3003;6337;49.556;25.594;2023-08-20T11:21:57;12.27;5.00;
12542;PMS3003;6337;49.556;25.594;2023-08-20T11:24:28;5.17;4.67;
12542;PMS3003;6337;49.556;25.594;2023-08-20T11:26:55;4.67;4.30;
12542;PMS3003;6337;49.556;25.594;2023-08-20T11:29:24;5.10;4.00;
12542;PMS3003;6337;49.556;25.594;2023-08-20T11:31:54;5.13;4.00;
12542;PMS3003;6337;49.556;25.594;2023-08-20T11:34:24;4.60;4.30;
12542;PMS3003;6337;49.556;25.594;2023-08-20T11:36:54;5.13;4.67;
12542;PMS3003;6337;49.556;25.594;2023-08-20T11:39:22;9.43;4.40;
12542;PMS3003;6337;49.556;25.594;2023-08-20T11:41:52;4.53;4.13;
12542;PMS3003;6337;49.556;25.594;2023-08-20T11:44:20;4.73;4.17;
12542;PMS3003;6337;49.556;25.594;2023-08-20T11:46:48;5.00;4.10;
12542;PMS3003;6337;49.556;25.594;2023-08-20T11:49:15;9.40;3.77;
12542;PMS3003;6337;49.556;25.594;2023-08-20T11:51:46;9.27;4.20;
12542;PMS3003;6337;49.556;25.594;2023-08-20T11:54:15;6.57;4.23;
12542;PMS3003;6337;49.556;25.594;2023-08-20T11:56:44;8.03;4.43;
12542;PMS3003;6337;49.556;25.594;2023-08-20T11:59:12;5.37;3.90;
12542;PMS3003;6337;49.556;25.594;2023-08-20T12:01:40;6.40;3.90;
12542;PMS3003;6337;49.556;25.594;2023-08-20T12:04:08;5.43;4.93;
12542;PMS3003;6337;49.556;25.594;2023-08-20T12:06:37;4.63;4.10;
12542;PMS3003;6337;49.556;25.594;2023-08-20T12:09:20;4.70;4.30;
12542;PMS3003;6337;49.556;25.594;2023-08-20T12:11:48;4.40;4.00;
12542;PMS3003;6337;49.556;25.594;2023-08-20T12:14:16;9.70;4.30;
12542;PMS3003;6337;49.556;25.594;2023-08-20T12:16:43;4.97;4.33;
12542;PMS3003;6337;49.556;25.594;2023-08-20T12:19:10;5.17;4.67;
12542;PMS3003;6337;49.556;25.594;2023-08-20T12:21:40;7.67;3.53;
12542;PMS3003;6337;49.556;25.594;2023-08-20T12:24:08;5.23;4.03;
12542;PMS3003;6337;49.556;25.594;2023-08-20T12:29:08;3.77;3.57;
12542;PMS3003;6337;49.556;25.594;2023-08-20T12:34:17;7.30;4.63;
12542;PMS3003;6337;49.556;25.594;2023-08-20T12:36:44;5.63;4.50;
12542;PMS3003;6337;49.556;25.594;2023-08-20T12:39:12;5.50;4.17;
12542;PMS3003;6337;49.556;25.594;2023-08-20T12:41:42;9.20;3.80;
12542;PMS3003;6337;49.556;25.594;2023-08-20T12:44:13;10.53;4.67;
12542;PMS3003;6337;49.556;25.594;2023-08-20T12:46:40;6.63;3.60;
12542;PMS3003;6337;49.556;25.594;2023-08-20T12:49:12;6.17;4.40;
12542;PMS3003;6337;49.556;25.594;2023-08-20T12:51:59;12.53;4.37;
12542;PMS3003;6337;49.556;25.594;2023-08-20T12:54:26;8.00;4.90;
12542;PMS3003;6337;49.556;25.594;2023-08-20T12:56:56;4.87;4.47;
12542;PMS3003;6337;49.556;25.594;2023-08-20T12:59:26;7.93;4.70;
12542;PMS3003;6337;49.556;25.594;2023-08-20T13:01:56;8.97;5.40;
12542;PMS3003;6337;49.556;25.594;2023-08-20T13:04:25;5.33;4.53;
12542;PMS3003;6337;49.556;25.594;2023-08-20T13:06:57;6.00;4.33;
12542;PMS3003;6337;49.556;25.594;2023-08-20T13:09:30;5.57;4.67;
12542;PMS3003;6337;49.556;25.594;2023-08-20T13:11:59;5.70;3.87;
12542;PMS3003;6337;49.556;25.594;2023-08-20T13:14:41;12.00;3.97;
12542;PMS3003;6337;49.556;25.594;2023-08-20T13:17:34;7.13;3.33;
12542;PMS3003;6337;49.556;25.594;2023-08-20T13:20:02;7.10;5.00;
12542;PMS3003;6337;49.556;25.594;2023-08-20T13:22:50;4.67;4.23;
12542;PMS3003;6337;49.556;25.594;2023-08-20T13:25:25;6.53;4.33;
12542;PMS3003;6337;49.556;25.594;2023-08-20T13:27:52;8.27;4.27;
12542;PMS3003;6337;49.556;25.594;2023-08-20T13:30:23;7.20;4.93;
12542;PMS3003;6337;49.556;25.594;2023-08-20T13:32:51;5.80;4.43;
12542;PMS3003;6337;49.556;25.594;2023-08-20T13:35:19;5.10;3.80;
12542;PMS3003;6337;49.556;25.594;2023-08-20T13:37:47;4.23;3.80;
12542;PMS3003;6337;49.556;25.594;2023-08-20T13:40:15;4.43;4.00;
12542;PMS3003;6337;49.556;25.594;2023-08-20T13:42:43;3.93;3.63;
12542;PMS3003;6337;49.556;25.594;2023-08-20T13:45:12;8.30;4.27;
12542;PMS3003;6337;49.556;25.594;2023-08-20T13:47:45;7.30;4.03;
12542;PMS3003;6337;49.556;25.594;2023-08-20T13:50:17;6.33;4.27;
12542;PMS3003;6337;49.556;25.594;2023-08-20T13:52:45;6.43;4.50;
12542;PMS3003;6337;49.556;25.594;2023-08-20T13:55:13;6.40;4.23;
12542;PMS3003;6337;49.556;25.594;2023-08-20T13:57:47;5.40;4.73;
12542;PMS3003;6337;49.556;25.594;2023-08-20T14:00:18;7.63;4.83;
12542;PMS3003;6337;49.556;25.594;2023-08-20T14:02:55;6.03;5.10;
12542;PMS3003;6337;49.556;25.594;2023-08-20T14:05:23;7.77;4.83;
12542;PMS3003;6337;49.556;25.594;2023-08-20T14:07:52;6.30;4.60;
12542;PMS3003;6337;49.556;25.594;2023-08-20T14:10:30;7.30;4.03;
12542;PMS3003;6337;49.556;25.594;2023-08-20T14:12:57;9.67;4.77;
12542;PMS3003;6337;49.556;25.594;2023-08-20T14:15:28;10.27;4.40;
12542;PMS3003;6337;49.556;25.594;2023-08-20T14:20:48;11.87;4.93;
12542;PMS3003;6337;49.556;25.594;2023-08-20T14:23:16;10.03;5.70;
12542;PMS3003;6337;49.556;25.594;2023-08-20T14:25:43;5.77;4.27;
12542;PMS3003;6337;49.556;25.594;2023-08-20T14:28:11;4.47;4.07;
12542;PMS3003;6337;49.556;25.594;2023-08-20T14:30:39;38.97;6.90;
12542;PMS3003;6337;49.556;25.594;2023-08-20T14:33:06;11.20;6.13;
12542;PMS3003;6337;49.556;25.594;2023-08-20T14:35:35;18.43;5.50;
12542;PMS3003;6337;49.556;25.594;2023-08-20T14:38:11;10.13;4.53;
12542;PMS3003;6337;49.556;25.594;2023-08-20T14:40:41;9.23;4.80;
12542;PMS3003;6337;49.556;25.594;2023-08-20T14:43:13;28.43;7.00;
12542;PMS3003;6337;49.556;25.594;2023-08-20T14:45:42;8.10;4.87;
12542;PMS3003;6337;49.556;25.594;2023-08-20T14:48:09;5.63;5.10;
12542;PMS3003;6337;49.556;25.594;2023-08-20T14:50:39;5.17;4.77;
12542;PMS3003;6337;49.556;25.594;2023-08-20T14:53:10;7.40;4.50;
12542;PMS3003;6337;49.556;25.594;2023-08-20T14:55:38;13.23;6.10;
12542;PMS3003;6337;49.556;25.594;2023-08-20T14:58:12;8.13;4.60;
12542;PMS3003;6337;49.556;25.594;2023-08-20T15:00:40;11.90;6.07;
12542;PMS3003;6337;49.556;25.594;2023-08-20T15:03:08;6.67;4.90;
12542;PMS3003;6337;49.556;25.594;2023-08-20T15:05:35;5.47;4.00;
12542;PMS3003;6337;49.556;25.594;2023-08-20T15:08:07;13.63;5.00;
12542;PMS3003;6337;49.556;25.594;2023-08-20T15:10:35;10.00;6.20;
12542;PMS3003;6337;49.556;25.594;2023-08-20T15:13:15;4.60;4.20;
12542;PMS3003;6337;49.556;25.594;2023-08-20T15:15:42;12.93;5.27;
12542;PMS3003;6337;49.556;25.594;2023-08-20T15:18:15;5.90;5.40;
12542;PMS3003;6337;49.556;25.594;2023-08-20T15:20:44;18.30;5.03;
12542;PMS3003;6337;49.556;25.594;2023-08-20T15:23:16;7.70;4.83;
12542;PMS3003;6337;49.556;25.594;2023-08-20T15:25:46;6.80;4.20;